createdAt,value
2023-08-11T00:05:48.757Z,5.20
2023-08-11T00:15:58.165Z,4.70
2023-08-11T00:26:04.755Z,4.70
2023-08-11T00:36:12.157Z,4.50
2023-08-11T00:46:19.117Z,5.00
2023-08-11T00:56:25.752Z,4.90
2023-08-11T01:06:35.124Z,4.70
2023-08-11T01:16:41.818Z,5.50
2023-08-11T01:26:48.905Z,5.50
2023-08-11T01:37:08.511Z,5.90
2023-08-11T01:47:15.313Z,5.70
2023-08-11T01:57:22.477Z,6.20
2023-08-11T02:07:29.664Z,7.00
2023-08-11T02:17:36.726Z,6.60
2023-08-11T02:27:44.542Z,7.80
2023-08-11T02:37:51.637Z,7.50
2023-08-11T02:47:56.376Z,8.00
2023-08-11T02:58:03.053Z,7.80
2023-08-11T03:08:10.349Z,7.70
2023-08-11T03:18:17.320Z,7.70
2023-08-11T03:28:23.997Z,7.40
2023-08-11T03:38:30.628Z,8.10
2023-08-11T03:48:37.242Z,8.80
2023-08-11T03:58:43.953Z,9.10
2023-08-11T04:08:50.574Z,9.40
2023-08-11T04:18:57.237Z,10.20
2023-08-11T04:29:04.801Z,9.60
2023-08-11T04:39:11.431Z,8.80
2023-08-11T04:49:18.100Z,8.60
2023-08-11T04:59:25.928Z,7.70
2023-08-11T05:09:32.497Z,8.10
2023-08-11T05:19:39.348Z,8.10
2023-08-11T05:29:47.862Z,8.50
2023-08-11T05:39:57.987Z,7.90
2023-08-11T05:50:04.712Z,7.30
2023-08-11T06:00:11.881Z,9.10
2023-08-11T06:10:18.619Z,6.80
2023-08-11T06:20:38.661Z,7.00
2023-08-11T06:30:45.836Z,6.50
2023-08-11T06:40:53.242Z,5.90
2023-08-11T06:50:59.927Z,5.10
2023-08-11T07:01:06.884Z,6.50
2023-08-11T07:11:13.740Z,6.60
2023-08-11T07:21:20.330Z,6.50
2023-08-11T07:31:27.493Z,6.50
2023-08-11T07:41:34.121Z,5.90
2023-08-11T07:51:43.376Z,5.30
2023-08-11T08:01:50.662Z,5.30
2023-08-11T08:11:57.305Z,5.30
2023-08-11T08:22:04.270Z,5.10
2023-08-11T08:32:10.977Z,4.60
2023-08-11T08:42:17.938Z,4.30
2023-08-11T08:52:24.641Z,5.20
2023-08-11T09:02:31.963Z,5.60
2023-08-11T09:12:38.729Z,4.50
2023-08-11T09:22:45.362Z,3.90
2023-08-11T09:32:52.002Z,4.00
2023-08-11T09:42:59.437Z,3.60
2023-08-11T09:53:08.040Z,3.80
2023-08-11T10:03:18.253Z,3.40
2023-08-11T10:13:26.547Z,4.70
2023-08-11T10:23:33.292Z,3.70
2023-08-11T10:33:39.980Z,3.90
2023-08-11T10:43:50.108Z,3.90
2023-08-11T10:54:03.660Z,3.90
2023-08-11T11:04:11.564Z,3.50
2023-08-11T11:14:18.156Z,3.80
2023-08-11T11:24:24.761Z,14.00
2023-08-11T11:34:31.868Z,3.10
2023-08-11T11:44:38.931Z,3.00
2023-08-11T11:54:46.241Z,3.70
2023-08-11T12:04:53.171Z,3.50
2023-08-11T12:15:04.437Z,3.30
2023-08-11T12:25:13.566Z,3.40
2023-08-11T12:35:20.405Z,3.90
2023-08-11T12:45:27.002Z,3.10
2023-08-11T12:55:34.321Z,3.10
2023-08-11T13:05:40.934Z,3.50
2023-08-11T13:15:49.892Z,3.40
2023-08-11T13:25:56.458Z,3.40
2023-08-11T13:36:03.215Z,3.40
2023-08-11T13:46:09.898Z,3.40
2023-08-11T13:56:16.649Z,3.50
2023-08-11T14:06:24.061Z,4.30
2023-08-11T14:16:31.192Z,5.60
2023-08-11T14:26:37.861Z,3.60
2023-08-11T14:36:44.463Z,3.50
2023-08-11T14:46:51.870Z,3.00
2023-08-11T14:56:59.218Z,3.00
2023-08-11T15:07:06.030Z,2.90
2023-08-11T15:17:13.082Z,5.00
2023-08-11T15:27:21.131Z,3.40
2023-08-11T15:37:27.749Z,3.30
2023-08-11T15:47:34.344Z,2.90
2023-08-11T15:57:41.078Z,3.40
2023-08-11T16:07:48.026Z,3.30
2023-08-11T16:17:56.792Z,7.20
2023-08-11T16:28:03.494Z,5.60
2023-08-11T16:38:10.070Z,3.50
2023-08-11T16:48:19.629Z,3.50
2023-08-11T16:58:26.633Z,8.40
2023-08-11T17:08:34.616Z,11.30
2023-08-11T17:18:41.171Z,15.10
2023-08-11T17:28:47.737Z,6.50
2023-08-11T17:38:59.040Z,3.80
2023-08-11T17:49:05.608Z,3.40
2023-08-11T17:59:12.199Z,3.80
2023-08-11T18:09:20.285Z,4.20
2023-08-11T18:19:26.851Z,4.20
2023-08-11T18:29:33.515Z,4.70
2023-08-11T18:39:40.128Z,5.50
2023-08-11T18:49:46.777Z,5.70
2023-08-11T18:59:53.432Z,5.90
2023-08-11T19:09:59.993Z,6.60
2023-08-11T19:20:07.359Z,8.00
2023-08-11T19:30:14.047Z,8.50
2023-08-11T19:40:20.693Z,8.80
2023-08-11T19:50:27.305Z,10.20
2023-08-11T20:00:34.278Z,9.90
2023-08-11T20:10:41.327Z,9.70
2023-08-11T20:20:48.044Z,9.30
2023-08-11T20:30:55.174Z,9.90
2023-08-11T20:41:01.998Z,9.70
2023-08-11T20:51:12.982Z,8.90
2023-08-11T21:01:19.860Z,8.70
2023-08-11T21:11:26.504Z,8.70
2023-08-11T21:21:33.632Z,7.90
2023-08-11T21:31:40.269Z,7.10
2023-08-11T21:41:44.919Z,7.25
2023-08-11T21:51:51.515Z,6.10
2023-08-11T22:01:58.566Z,7.10
2023-08-11T22:12:05.569Z,6.80
2023-08-11T22:22:13.413Z,6.80
2023-08-11T22:32:20.365Z,6.00
2023-08-11T22:42:28.788Z,6.40
2023-08-11T22:52:35.392Z,7.00
2023-08-11T23:02:42.407Z,6.70
2023-08-11T23:12:49.033Z,7.00
2023-08-11T23:22:55.593Z,7.60
2023-08-11T23:33:02.877Z,7.00
2023-08-11T23:43:09.497Z,6.80
2023-08-11T23:53:16.106Z,7.30
